sensor_id;sensor_type;location;lat;lon;timestamp;P1;durP1;ratioP1;P2;durP2;ratioP2
22660;SDS011;11497;52.222;21.246;2023-04-25T00:01:51;27.02;;;16.88;;
22660;SDS011;11497;52.222;21.246;2023-04-25T00:04:19;25.05;;;16.98;;
22660;SDS011;11497;52.222;21.246;2023-04-25T00:06:48;23.20;;;16.98;;
22660;SDS011;11497;52.222;21.246;2023-04-25T00:09:16;23.08;;;17.48;;
22660;SDS011;11497;52.222;21.246;2023-04-25T00:11:44;22.42;;;17.10;;
22660;SDS011;11497;52.222;21.246;2023-04-25T00:14:12;25.75;;;17.50;;
22660;SDS011;11497;52.222;21.246;2023-04-25T00:16:40;24.23;;;17.75;;
22660;SDS011;11497;52.222;21.246;2023-04-25T00:19:10;23.13;;;17.70;;
22660;SDS011;11497;52.222;21.246;2023-04-25T00:21:39;24.13;;;17.67;;
22660;SDS011;11497;52.222;21.246;2023-04-25T00:24:07;22.73;;;17.55;;
22660;SDS011;11497;52.222;21.246;2023-04-25T00:26:35;24.17;;;17.05;;
22660;SDS011;11497;52.222;21.246;2023-04-25T00:29:03;23.80;;;18.58;;
22660;SDS011;11497;52.222;21.246;2023-04-25T00:31:31;24.92;;;18.02;;
22660;SDS011;11497;52.222;21.246;2023-04-25T00:33:59;26.65;;;17.60;;
22660;SDS011;11497;52.222;21.246;2023-04-25T00:36:27;25.08;;;17.92;;
22660;SDS011;11497;52.222;21.246;2023-04-25T00:38:55;28.45;;;18.05;;
22660;SDS011;11497;52.222;21.246;2023-04-25T00:41:23;26.38;;;19.23;;
22660;SDS011;11497;52.222;21.246;2023-04-25T00:43:53;23.48;;;18.23;;
22660;SDS011;11497;52.222;21.246;2023-04-25T00:46:22;22.98;;;17.85;;
22660;SDS011;11497;52.222;21.246;2023-04-25T00:48:50;26.92;;;17.98;;
22660;SDS011;11497;52.222;21.246;2023-04-25T00:51:21;27.58;;;18.95;;
22660;SDS011;11497;52.222;21.246;2023-04-25T00:53:50;24.02;;;18.25;;
22660;SDS011;11497;52.222;21.246;2023-04-25T00:56:19;28.40;;;18.73;;
22660;SDS011;11497;52.222;21.246;2023-04-25T00:58:47;26.05;;;19.38;;
22660;SDS011;11497;52.222;21.246;2023-04-25T01:01:17;26.52;;;19.17;;
22660;SDS011;11497;52.222;21.246;2023-04-25T01:03:45;25.30;;;19.15;;
22660;SDS011;11497;52.222;21.246;2023-04-25T01:06:14;23.77;;;18.55;;
22660;SDS011;11497;52.222;21.246;2023-04-25T01:08:43;28.95;;;19.45;;
22660;SDS011;11497;52.222;21.246;2023-04-25T01:11:11;27.48;;;19.92;;
22660;SDS011;11497;52.222;21.246;2023-04-25T01:13:38;28.65;;;19.77;;
22660;SDS011;11497;52.222;21.246;2023-04-25T01:16:06;27.75;;;19.40;;
22660;SDS011;11497;52.222;21.246;2023-04-25T01:18:34;25.33;;;20.23;;
22660;SDS011;11497;52.222;21.246;2023-04-25T01:21:07;28.90;;;20.58;;
22660;SDS011;11497;52.222;21.246;2023-04-25T01:23:37;31.47;;;20.43;;
22660;SDS011;11497;52.222;21.246;2023-04-25T01:26:10;29.42;;;21.25;;
22660;SDS011;11497;52.222;21.246;2023-04-25T01:28:39;27.83;;;20.23;;
22660;SDS011;11497;52.222;21.246;2023-04-25T01:31:11;27.90;;;20.05;;
22660;SDS011;11497;52.222;21.246;2023-04-25T01:33:40;26.35;;;20.65;;
22660;SDS011;11497;52.222;21.246;2023-04-25T01:36:08;30.80;;;21.50;;
22660;SDS011;11497;52.222;21.246;2023-04-25T01:38:37;27.63;;;20.60;;
22660;SDS011;11497;52.222;21.246;2023-04-25T01:41:07;30.55;;;21.17;;
22660;SDS011;11497;52.222;21.246;2023-04-25T01:43:35;27.13;;;20.58;;
22660;SDS011;11497;52.222;21.246;2023-04-25T01:46:03;30.73;;;22.20;;
22660;SDS011;11497;52.222;21.246;2023-04-25T01:48:31;32.95;;;22.85;;
22660;SDS011;11497;52.222;21.246;2023-04-25T01:50:59;32.38;;;23.35;;
22660;SDS011;11497;52.222;21.246;2023-04-25T01:53:28;32.30;;;22.42;;
22660;SDS011;11497;52.222;21.246;2023-04-25T01:55:57;32.95;;;23.45;;
22660;SDS011;11497;52.222;21.246;2023-04-25T01:58:29;32.63;;;23.30;;
22660;SDS011;11497;52.222;21.246;2023-04-25T02:01:30;34.13;;;23.42;;
22660;SDS011;11497;52.222;21.246;2023-04-25T02:04:14;32.30;;;22.88;;
22660;SDS011;11497;52.222;21.246;2023-04-25T02:06:43;32.85;;;23.83;;
22660;SDS011;11497;52.222;21.246;2023-04-25T02:09:11;33.30;;;24.30;;
22660;SDS011;11497;52.222;21.246;2023-04-25T02:11:46;33.58;;;23.42;;
22660;SDS011;11497;52.222;21.246;2023-04-25T02:14:36;31.50;;;22.80;;
22660;SDS011;11497;52.222;21.246;2023-04-25T02:17:17;32.83;;;24.02;;
22660;SDS011;11497;52.222;21.246;2023-04-25T02:19:45;35.05;;;25.40;;
22660;SDS011;11497;52.222;21.246;2023-04-25T02:22:13;37.65;;;25.20;;
22660;SDS011;11497;52.222;21.246;2023-04-25T02:24:41;34.95;;;24.98;;
22660;SDS011;11497;52.222;21.246;2023-04-25T02:27:09;35.05;;;24.85;;
22660;SDS011;11497;52.222;21.246;2023-04-25T02:29:36;35.83;;;24.80;;
22660;SDS011;11497;52.222;21.246;2023-04-25T02:32:04;37.67;;;25.70;;
22660;SDS011;11497;52.222;21.246;2023-04-25T02:34:32;33.72;;;25.05;;
22660;SDS011;11497;52.222;21.246;2023-04-25T02:37:00;32.20;;;24.77;;
22660;SDS011;11497;52.222;21.246;2023-04-25T02:39:28;39.92;;;27.25;;
22660;SDS011;11497;52.222;21.246;2023-04-25T02:41:56;41.33;;;27.02;;
22660;SDS011;11497;52.222;21.246;2023-04-25T02:44:24;37.85;;;26.25;;
22660;SDS011;11497;52.222;21.246;2023-04-25T02:46:51;38.33;;;26.38;;
22660;SDS011;11497;52.222;21.246;2023-04-25T02:49:22;40.22;;;26.98;;
22660;SDS011;11497;52.222;21.246;2023-04-25T02:51:51;36.47;;;25.83;;
22660;SDS011;11497;52.222;21.246;2023-04-25T02:54:19;37.95;;;26.25;;
22660;SDS011;11497;52.222;21.246;2023-04-25T02:56:48;38.15;;;25.05;;
22660;SDS011;11497;52.222;21.246;2023-04-25T02:59:22;41.28;;;27.10;;
22660;SDS011;11497;52.222;21.246;2023-04-25T03:01:50;35.60;;;25.17;;
22660;SDS011;11497;52.222;21.246;2023-04-25T03:04:18;38.17;;;26.33;;
22660;SDS011;11497;52.222;21.246;2023-04-25T03:06:46;36.35;;;25.52;;
22660;SDS011;11497;52.222;21.246;2023-04-25T03:09:14;38.80;;;26.67;;
22660;SDS011;11497;52.222;21.246;2023-04-25T03:11:43;38.70;;;27.65;;
22660;SDS011;11497;52.222;21.246;2023-04-25T03:14:12;36.63;;;26.63;;
22660;SDS011;11497;52.222;21.246;2023-04-25T03:16:40;37.33;;;25.30;;
22660;SDS011;11497;52.222;21.246;2023-04-25T03:19:08;38.40;;;25.10;;
22660;SDS011;11497;52.222;21.246;2023-04-25T03:21:37;37.53;;;26.90;;
22660;SDS011;11497;52.222;21.246;2023-04-25T03:24:04;40.08;;;25.70;;
22660;SDS011;11497;52.222;21.246;2023-04-25T03:26:33;37.47;;;26.85;;
22660;SDS011;11497;52.222;21.246;2023-04-25T03:29:00;39.17;;;26.67;;
22660;SDS011;11497;52.222;21.246;2023-04-25T03:31:29;37.88;;;25.58;;
22660;SDS011;11497;52.222;21.246;2023-04-25T03:33:58;40.90;;;26.95;;
22660;SDS011;11497;52.222;21.246;2023-04-25T03:36:26;40.60;;;25.35;;
22660;SDS011;11497;52.222;21.246;2023-04-25T03:38:53;34.63;;;24.95;;
22660;SDS011;11497;52.222;21.246;2023-04-25T03:41:22;37.97;;;25.58;;
22660;SDS011;11497;52.222;21.246;2023-04-25T03:43:53;36.05;;;24.17;;
22660;SDS011;11497;52.222;21.246;2023-04-25T03:46:21;32.28;;;23.60;;
22660;SDS011;11497;52.222;21.246;2023-04-25T03:48:49;30.60;;;22.92;;
22660;SDS011;11497;52.222;21.246;2023-04-25T03:51:21;31.25;;;22.15;;
22660;SDS011;11497;52.222;21.246;2023-04-25T03:53:49;27.10;;;19.58;;
22660;SDS011;11497;52.222;21.246;2023-04-25T03:56:29;27.63;;;18.40;;
22660;SDS011;11497;52.222;21.246;2023-04-25T03:59:09;26.50;;;18.95;;
22660;SDS011;11497;52.222;21.246;2023-04-25T04:01:37;22.65;;;16.48;;
22660;SDS011;11497;52.222;21.246;2023-04-25T04:04:04;23.65;;;16.05;;
22660;SDS011;11497;52.222;21.246;2023-04-25T04:06:33;23.70;;;15.95;;
22660;SDS011;11497;52.222;21.246;2023-04-25T04:09:08;20.33;;;15.32;;
22660;SDS011;11497;52.222;21.246;2023-04-25T04:11:39;23.65;;;16.00;;
22660;SDS011;11497;52.222;21.246;2023-04-25T04:14:07;20.17;;;15.45;;
22660;SDS011;11497;52.222;21.246;2023-04-25T04:16:41;20.02;;;14.90;;
22660;SDS011;11497;52.222;21.246;2023-04-25T04:19:09;19.55;;;14.25;;
22660;SDS011;11497;52.222;21.246;2023-04-25T04:21:41;18.25;;;13.88;;
22660;SDS011;11497;52.222;21.246;2023-04-25T04:24:09;20.08;;;13.50;;
22660;SDS011;11497;52.222;21.246;2023-04-25T04:26:48;16.15;;;12.98;;
22660;SDS011;11497;52.222;21.246;2023-04-25T04:29:31;17.17;;;13.30;;
22660;SDS011;11497;52.222;21.246;2023-04-25T04:34:36;16.75;;;12.95;;
22660;SDS011;11497;52.222;21.246;2023-04-25T04:37:04;18.98;;;12.35;;
22660;SDS011;11497;52.222;21.246;2023-04-25T04:39:34;16.02;;;12.23;;
22660;SDS011;11497;52.222;21.246;2023-04-25T04:42:25;18.50;;;12.52;;
22660;SDS011;11497;52.222;21.246;2023-04-25T04:45:05;17.98;;;12.45;;
22660;SDS011;11497;52.222;21.246;2023-04-25T04:47:52;19.35;;;12.82;;
22660;SDS011;11497;52.222;21.246;2023-04-25T04:50:54;17.38;;;13.45;;
22660;SDS011;11497;52.222;21.246;2023-04-25T04:53:40;18.88;;;13.45;;
22660;SDS011;11497;52.222;21.246;2023-04-25T04:56:16;18.58;;;13.60;;
22660;SDS011;11497;52.222;21.246;2023-04-25T04:59:04;22.23;;;13.82;;
22660;SDS011;11497;52.222;21.246;2023-04-25T05:02:07;19.42;;;14.15;;
22660;SDS011;11497;52.222;21.246;2023-04-25T05:04:55;17.15;;;13.10;;
22660;SDS011;11497;52.222;21.246;2023-04-25T05:07:36;17.50;;;13.60;;
22660;SDS011;11497;52.222;21.246;2023-04-25T05:10:25;19.60;;;14.25;;
22660;SDS011;11497;52.222;21.246;2023-04-25T05:12:55;18.27;;;14.50;;
22660;SDS011;11497;52.222;21.246;2023-04-25T05:15:42;19.80;;;14.27;;
22660;SDS011;11497;52.222;21.246;2023-04-25T05:18:18;19.90;;;12.85;;
22660;SDS011;11497;52.222;21.246;2023-04-25T05:21:01;20.33;;;13.45;;
22660;SDS011;11497;52.222;21.246;2023-04-25T05:24:02;15.98;;;13.18;;
22660;SDS011;11497;52.222;21.246;2023-04-25T05:27:15;16.23;;;13.13;;
22660;SDS011;11497;52.222;21.246;2023-04-25T05:30:05;18.88;;;12.40;;
22660;SDS011;11497;52.222;21.246;2023-04-25T05:32:53;18.65;;;13.05;;
22660;SDS011;11497;52.222;21.246;2023-04-25T05:35:22;15.48;;;12.35;;
22660;SDS011;11497;52.222;21.246;2023-04-25T05:37:50;16.45;;;12.35;;
22660;SDS011;11497;52.222;21.246;2023-04-25T05:40:23;15.48;;;12.55;;
22660;SDS011;11497;52.222;21.246;2023-04-25T05:43:10;14.38;;;12.35;;
22660;SDS011;11497;52.222;21.246;2023-04-25T05:45:47;15.07;;;12.20;;
22660;SDS011;11497;52.222;21.246;2023-04-25T05:48:40;16.02;;;11.48;;
22660;SDS011;11497;52.222;21.246;2023-04-25T05:51:26;18.13;;;12.10;;
22660;SDS011;11497;52.222;21.246;2023-04-25T05:54:13;15.40;;;12.98;;
22660;SDS011;11497;52.222;21.246;2023-04-25T05:56:41;19.38;;;13.57;;
22660;SDS011;11497;52.222;21.246;2023-04-25T05:59:09;23.67;;;14.13;;
22660;SDS011;11497;52.222;21.246;2023-04-25T06:01:37;18.30;;;13.93;;
22660;SDS011;11497;52.222;21.246;2023-04-25T06:04:05;17.30;;;13.20;;
22660;SDS011;11497;52.222;21.246;2023-04-25T06:06:34;16.30;;;12.55;;
22660;SDS011;11497;52.222;21.246;2023-04-25T06:09:01;19.38;;;13.63;;
22660;SDS011;11497;52.222;21.246;2023-04-25T06:11:31;16.02;;;12.60;;
22660;SDS011;11497;52.222;21.246;2023-04-25T06:13:58;21.13;;;13.05;;
22660;SDS011;11497;52.222;21.246;2023-04-25T06:16:27;17.58;;;12.25;;
22660;SDS011;11497;52.222;21.246;2023-04-25T06:18:55;16.90;;;11.82;;
22660;SDS011;11497;52.222;21.246;2023-04-25T06:21:23;14.70;;;11.63;;
22660;SDS011;11497;52.222;21.246;2023-04-25T06:23:51;19.60;;;12.00;;
22660;SDS011;11497;52.222;21.246;2023-04-25T06:26:22;14.93;;;11.93;;
22660;SDS011;11497;52.222;21.246;2023-04-25T06:28:52;18.63;;;12.00;;
22660;SDS011;11497;52.222;21.246;2023-04-25T06:31:20;13.43;;;11.48;;
22660;SDS011;11497;52.222;21.246;2023-04-25T06:33:49;16.35;;;11.90;;
22660;SDS011;11497;52.222;21.246;2023-04-25T06:36:17;14.90;;;11.25;;
22660;SDS011;11497;52.222;21.246;2023-04-25T06:38:50;17.52;;;11.02;;
22660;SDS011;11497;52.222;21.246;2023-04-25T06:41:19;15.68;;;12.20;;
22660;SDS011;11497;52.222;21.246;2023-04-25T06:43:47;14.15;;;11.32;;
22660;SDS011;11497;52.222;21.246;2023-04-25T06:46:31;13.05;;;9.95;;
22660;SDS011;11497;52.222;21.246;2023-04-25T06:48:59;16.40;;;11.48;;
22660;SDS011;11497;52.222;21.246;2023-04-25T06:51:27;13.57;;;10.77;;
22660;SDS011;11497;52.222;21.246;2023-04-25T06:53:57;15.60;;;11.93;;
22660;SDS011;11497;52.222;21.246;2023-04-25T06:56:35;16.55;;;11.70;;
22660;SDS011;11497;52.222;21.246;2023-04-25T06:59:13;12.73;;;10.80;;
22660;SDS011;11497;52.222;21.246;2023-04-25T07:01:43;12.55;;;10.82;;
22660;SDS011;11497;52.222;21.246;2023-04-25T07:04:23;12.90;;;10.30;;
22660;SDS011;11497;52.222;21.246;2023-04-25T07:06:55;12.68;;;10.32;;
22660;SDS011;11497;52.222;21.246;2023-04-25T07:09:42;11.93;;;10.38;;
22660;SDS011;11497;52.222;21.246;2023-04-25T07:12:10;12.38;;;9.75;;
22660;SDS011;11497;52.222;21.246;2023-04-25T07:14:38;16.65;;;9.25;;
22660;SDS011;11497;52.222;21.246;2023-04-25T07:17:07;12.13;;;9.88;;
22660;SDS011;11497;52.222;21.246;2023-04-25T07:19:36;10.48;;;9.32;;
22660;SDS011;11497;52.222;21.246;2023-04-25T07:22:07;14.77;;;10.55;;
22660;SDS011;11497;52.222;21.246;2023-04-25T07:24:37;15.15;;;11.93;;
22660;SDS011;11497;52.222;21.246;2023-04-25T07:27:07;17.60;;;12.52;;
22660;SDS011;11497;52.222;21.246;2023-04-25T07:30:00;16.00;;;11.30;;
22660;SDS011;11497;52.222;21.246;2023-04-25T07:32:29;14.23;;;12.00;;
22660;SDS011;11497;52.222;21.246;2023-04-25T07:34:57;12.82;;;11.35;;
22660;SDS011;11497;52.222;21.246;2023-04-25T07:37:25;16.92;;;11.32;;
22660;SDS011;11497;52.222;21.246;2023-04-25T07:40:02;14.10;;;11.07;;
22660;SDS011;11497;52.222;21.246;2023-04-25T07:42:31;15.77;;;12.55;;
22660;SDS011;11497;52.222;21.246;2023-04-25T07:45:00;17.33;;;13.13;;
22660;SDS011;11497;52.222;21.246;2023-04-25T07:47:29;19.45;;;14.40;;
22660;SDS011;11497;52.222;21.246;2023-04-25T07:49:57;20.95;;;16.38;;
22660;SDS011;11497;52.222;21.246;2023-04-25T07:52:25;20.83;;;16.40;;
22660;SDS011;11497;52.222;21.246;2023-04-25T07:55:01;19.45;;;15.77;;
22660;SDS011;11497;52.222;21.246;2023-04-25T07:57:40;20.65;;;15.88;;
22660;SDS011;11497;52.222;21.246;2023-04-25T08:00:08;25.85;;;16.55;;
22660;SDS011;11497;52.222;21.246;2023-04-25T08:02:39;19.60;;;16.33;;
22660;SDS011;11497;52.222;21.246;2023-04-25T08:05:12;22.40;;;15.17;;
22660;SDS011;11497;52.222;21.246;2023-04-25T08:07:49;20.95;;;15.95;;
22660;SDS011;11497;52.222;21.246;2023-04-25T08:10:17;18.52;;;14.85;;
22660;SDS011;11497;52.222;21.246;2023-04-25T08:12:47;18.40;;;14.73;;
22660;SDS011;11497;52.222;21.246;2023-04-25T08:15:15;15.18;;;12.68;;
22660;SDS011;11497;52.222;21.246;2023-04-25T08:17:43;18.88;;;13.73;;
22660;SDS011;11497;52.222;21.246;2023-04-25T08:20:13;13.38;;;12.07;;
22660;SDS011;11497;52.222;21.246;2023-04-25T08:22:42;14.38;;;10.93;;
22660;SDS011;11497;52.222;21.246;2023-04-25T08:25:33;13.10;;;10.25;;
22660;SDS011;11497;52.222;21.246;2023-04-25T08:28:01;12.25;;;10.95;;
22660;SDS011;11497;52.222;21.246;2023-04-25T08:30:30;15.82;;;11.15;;
22660;SDS011;11497;52.222;21.246;2023-04-25T08:32:58;11.95;;;9.60;;
22660;SDS011;11497;52.222;21.246;2023-04-25T08:35:46;10.07;;;9.00;;
22660;SDS011;11497;52.222;21.246;2023-04-25T08:38:15;10.45;;;8.93;;
22660;SDS011;11497;52.222;21.246;2023-04-25T08:40:44;10.65;;;9.32;;
22660;SDS011;11497;52.222;21.246;2023-04-25T08:43:17;11.48;;;9.55;;
22660;SDS011;11497;52.222;21.246;2023-04-25T08:45:47;12.07;;;9.25;;
22660;SDS011;11497;52.222;21.246;2023-04-25T08:48:26;11.30;;;9.57;;
22660;SDS011;11497;52.222;21.246;2023-04-25T08:50:58;11.18;;;10.05;;
22660;SDS011;11497;52.222;21.246;2023-04-25T08:53:28;10.70;;;9.55;;
22660;SDS011;11497;52.222;21.246;2023-04-25T08:56:02;10.73;;;9.07;;
22660;SDS011;11497;52.222;21.246;2023-04-25T08:58:34;12.73;;;10.70;;
22660;SDS011;11497;52.222;21.246;2023-04-25T09:01:03;14.45;;;10.70;;
22660;SDS011;11497;52.222;21.246;2023-04-25T09:03:39;15.13;;;10.80;;
22660;SDS011;11497;52.222;21.246;2023-04-25T09:06:08;14.35;;;11.55;;
22660;SDS011;11497;52.222;21.246;2023-04-25T09:08:37;13.50;;;11.65;;
22660;SDS011;11497;52.222;21.246;2023-04-25T09:11:07;15.13;;;10.90;;
22660;SDS011;11497;52.222;21.246;2023-04-25T09:13:35;14.77;;;12.40;;
22660;SDS011;11497;52.222;21.246;2023-04-25T09:16:19;14.80;;;13.18;;
22660;SDS011;11497;52.222;21.246;2023-04-25T09:19:21;13.98;;;12.05;;
22660;SDS011;11497;52.222;21.246;2023-04-25T09:22:16;11.23;;;10.13;;
22660;SDS011;11497;52.222;21.246;2023-04-25T09:24:48;15.15;;;10.50;;
22660;SDS011;11497;52.222;21.246;2023-04-25T09:27:20;11.77;;;9.75;;
22660;SDS011;11497;52.222;21.246;2023-04-25T09:29:58;10.35;;;9.35;;
22660;SDS011;11497;52.222;21.246;2023-04-25T09:32:48;11.57;;;10.23;;
22660;SDS011;11497;52.222;21.246;2023-04-25T09:35:23;13.13;;;10.77;;
22660;SDS011;11497;52.222;21.246;2023-04-25T09:37:55;13.00;;;11.60;;
22660;SDS011;11497;52.222;21.246;2023-04-25T09:40:42;16.05;;;12.27;;
22660;SDS011;11497;52.222;21.246;2023-04-25T09:43:22;13.77;;;11.88;;
22660;SDS011;11497;52.222;21.246;2023-04-25T09:45:53;14.75;;;10.98;;
22660;SDS011;11497;52.222;21.246;2023-04-25T09:48:26;12.77;;;11.27;;
22660;SDS011;11497;52.222;21.246;2023-04-25T09:51:09;14.88;;;12.13;;
22660;SDS011;11497;52.222;21.246;2023-04-25T09:53:39;21.00;;;12.48;;
22660;SDS011;11497;52.222;21.246;2023-04-25T09:56:16;19.33;;;11.32;;
22660;SDS011;11497;52.222;21.246;2023-04-25T09:58:48;19.15;;;11.88;;
22660;SDS011;11497;52.222;21.246;2023-04-25T10:01:20;14.38;;;11.88;;
22660;SDS011;11497;52.222;21.246;2023-04-25T10:04:12;17.65;;;13.05;;
22660;SDS011;11497;52.222;21.246;2023-04-25T10:06:51;14.82;;;13.27;;
22660;SDS011;11497;52.222;21.246;2023-04-25T10:09:22;17.20;;;13.10;;
22660;SDS011;11497;52.222;21.246;2023-04-25T10:11:58;14.95;;;13.35;;
22660;SDS011;11497;52.222;21.246;2023-04-25T10:14:27;14.38;;;12.85;;
22660;SDS011;11497;52.222;21.246;2023-04-25T10:16:58;15.52;;;13.05;;
22660;SDS011;11497;52.222;21.246;2023-04-25T10:19:27;15.23;;;12.95;;
22660;SDS011;11497;52.222;21.246;2023-04-25T10:24:35;16.05;;;13.98;;
22660;SDS011;11497;52.222;21.246;2023-04-25T10:27:04;15.30;;;12.82;;
22660;SDS011;11497;52.222;21.246;2023-04-25T10:29:33;14.82;;;13.32;;
22660;SDS011;11497;52.222;21.246;2023-04-25T10:32:01;18.02;;;13.88;;
22660;SDS011;11497;52.222;21.246;2023-04-25T10:34:43;16.92;;;15.13;;
22660;SDS011;11497;52.222;21.246;2023-04-25T10:37:13;16.20;;;13.82;;
22660;SDS011;11497;52.222;21.246;2023-04-25T10:39:41;15.80;;;13.88;;
22660;SDS011;11497;52.222;21.246;2023-04-25T10:42:10;14.93;;;13.32;;
22660;SDS011;11497;52.222;21.246;2023-04-25T10:44:39;22.67;;;14.40;;
22660;SDS011;11497;52.222;21.246;2023-04-25T10:47:07;16.75;;;13.75;;
22660;SDS011;11497;52.222;21.246;2023-04-25T10:49:45;16.30;;;14.57;;
22660;SDS011;11497;52.222;21.246;2023-04-25T10:52:19;16.38;;;14.02;;
22660;SDS011;11497;52.222;21.246;2023-04-25T10:54:54;14.52;;;13.00;;
22660;SDS011;11497;52.222;21.246;2023-04-25T10:57:26;16.42;;;14.45;;
22660;SDS011;11497;52.222;21.246;2023-04-25T11:00:16;17.02;;;14.35;;
22660;SDS011;11497;52.222;21.246;2023-04-25T11:03:15;17.58;;;14.98;;
22660;SDS011;11497;52.222;21.246;2023-04-25T11:05:44;17.23;;;14.90;;
22660;SDS011;11497;52.222;21.246;2023-04-25T11:08:47;16.95;;;14.40;;
22660;SDS011;11497;52.222;21.246;2023-04-25T11:11:19;19.58;;;16.35;;
22660;SDS011;11497;52.222;21.246;2023-04-25T11:13:47;20.15;;;16.17;;
22660;SDS011;11497;52.222;21.246;2023-04-25T11:16:17;20.58;;;17.00;;
22660;SDS011;11497;52.222;21.246;2023-04-25T11:18:56;20.85;;;17.08;;
22660;SDS011;11497;52.222;21.246;2023-04-25T11:21:25;21.40;;;17.92;;
22660;SDS011;11497;52.222;21.246;2023-04-25T11:23:56;20.80;;;17.73;;
22660;SDS011;11497;52.222;21.246;2023-04-25T11:26:24;25.67;;;20.20;;
22660;SDS011;11497;52.222;21.246;2023-04-25T11:28:56;26.02;;;19.98;;
22660;SDS011;11497;52.222;21.246;2023-04-25T11:31:26;24.38;;;19.73;;
22660;SDS011;11497;52.222;21.246;2023-04-25T11:33:56;23.85;;;20.42;;
22660;SDS011;11497;52.222;21.246;2023-04-25T11:36:25;25.60;;;20.42;;
22660;SDS011;11497;52.222;21.246;2023-04-25T11:38:53;22.65;;;19.50;;
22660;SDS011;11497;52.222;21.246;2023-04-25T11:41:21;25.70;;;20.55;;
22660;SDS011;11497;52.222;21.246;2023-04-25T11:43:49;23.48;;;20.38;;
22660;SDS011;11497;52.222;21.246;2023-04-25T11:46:19;26.67;;;19.80;;
22660;SDS011;11497;52.222;21.246;2023-04-25T11:48:48;20.00;;;17.88;;
22660;SDS011;11497;52.222;21.246;2023-04-25T11:51:17;18.92;;;16.90;;
22660;SDS011;11497;52.222;21.246;2023-04-25T11:53:45;20.42;;;16.50;;
22660;SDS011;11497;52.222;21.246;2023-04-25T11:56:13;19.88;;;16.63;;
22660;SDS011;11497;52.222;21.246;2023-04-25T11:58:55;18.98;;;16.88;;
22660;SDS011;11497;52.222;21.246;2023-04-25T12:01:30;18.88;;;15.60;;
22660;SDS011;11497;52.222;21.246;2023-04-25T12:04:17;18.50;;;15.75;;
22660;SDS011;11497;52.222;21.246;2023-04-25T12:06:51;15.32;;;13.57;;
22660;SDS011;11497;52.222;21.246;2023-04-25T12:09:31;15.10;;;13.55;;
22660;SDS011;11497;52.222;21.246;2023-04-25T12:12:00;13.50;;;11.95;;
22660;SDS011;11497;52.222;21.246;2023-04-25T12:14:30;12.32;;;10.25;;
22660;SDS011;11497;52.222;21.246;2023-04-25T12:17:00;11.98;;;9.93;;
22660;SDS011;11497;52.222;21.246;2023-04-25T12:19:36;11.32;;;8.73;;
22660;SDS011;11497;52.222;21.246;2023-04-25T12:22:21;9.95;;;9.00;;
22660;SDS011;11497;52.222;21.246;2023-04-25T12:24:50;9.60;;;8.60;;
22660;SDS011;11497;52.222;21.246;2023-04-25T12:27:20;8.82;;;7.93;;
22660;SDS011;11497;52.222;21.246;2023-04-25T12:29:51;10.77;;;8.45;;
22660;SDS011;11497;52.222;21.246;2023-04-25T12:32:21;11.20;;;8.90;;
22660;SDS011;11497;52.222;21.246;2023-04-25T12:34:50;9.45;;;8.35;;
22660;SDS011;11497;52.222;21.246;2023-04-25T12:37:18;8.82;;;8.00;;
22660;SDS011;11497;52.222;21.246;2023-04-25T12:39:45;9.77;;;8.77;;
22660;SDS011;11497;52.222;21.246;2023-04-25T12:42:13;10.63;;;9.18;;
22660;SDS011;11497;52.222;21.246;2023-04-25T12:44:41;13.75;;;8.63;;
22660;SDS011;11497;52.222;21.246;2023-04-25T12:47:09;9.95;;;8.57;;
22660;SDS011;11497;52.222;21.246;2023-04-25T12:49:37;12.48;;;8.75;;
22660;SDS011;11497;52.222;21.246;2023-04-25T12:52:05;14.68;;;9.82;;
22660;SDS011;11497;52.222;21.246;2023-04-25T12:54:33;13.88;;;10.68;;
22660;SDS011;11497;52.222;21.246;2023-04-25T12:57:02;14.57;;;10.75;;
22660;SDS011;11497;52.222;21.246;2023-04-25T12:59:29;11.73;;;10.30;;
22660;SDS011;11497;52.222;21.246;2023-04-25T13:01:58;11.75;;;10.23;;
22660;SDS011;11497;52.222;21.246;2023-04-25T13:04:26;15.18;;;11.30;;
22660;SDS011;11497;52.222;21.246;2023-04-25T13:06:54;13.68;;;11.45;;
22660;SDS011;11497;52.222;21.246;2023-04-25T13:09:22;14.52;;;10.88;;
22660;SDS011;11497;52.222;21.246;2023-04-25T13:11:50;13.50;;;11.20;;
22660;SDS011;11497;52.222;21.246;2023-04-25T13:14:22;14.80;;;10.77;;
22660;SDS011;11497;52.222;21.246;2023-04-25T13:16:50;12.20;;;10.32;;
22660;SDS011;11497;52.222;21.246;2023-04-25T13:19:18;14.90;;;11.43;;
22660;SDS011;11497;52.222;21.246;2023-04-25T13:21:46;12.70;;;9.30;;
22660;SDS011;11497;52.222;21.246;2023-04-25T13:24:14;14.80;;;9.32;;
22660;SDS011;11497;52.222;21.246;2023-04-25T13:26:42;13.00;;;9.05;;
22660;SDS011;11497;52.222;21.246;2023-04-25T13:29:10;9.68;;;8.20;;
22660;SDS011;11497;52.222;21.246;2023-04-25T13:31:38;9.23;;;7.10;;
22660;SDS011;11497;52.222;21.246;2023-04-25T13:34:06;8.38;;;7.07;;
22660;SDS011;11497;52.222;21.246;2023-04-25T13:36:34;12.15;;;7.35;;
22660;SDS011;11497;52.222;21.246;2023-04-25T13:39:02;7.13;;;5.70;;
22660;SDS011;11497;52.222;21.246;2023-04-25T13:41:31;6.65;;;5.50;;
22660;SDS011;11497;52.222;21.246;2023-04-25T13:43:59;14.98;;;7.10;;
22660;SDS011;11497;52.222;21.246;2023-04-25T13:46:27;6.78;;;5.47;;
22660;SDS011;11497;52.222;21.246;2023-04-25T13:51:39;26.15;;;9.27;;
22660;SDS011;11497;52.222;21.246;2023-04-25T13:54:09;7.03;;;5.53;;
22660;SDS011;11497;52.222;21.246;2023-04-25T13:56:37;6.32;;;5.30;;
22660;SDS011;11497;52.222;21.246;2023-04-25T13:59:05;8.48;;;5.57;;
22660;SDS011;11497;52.222;21.246;2023-04-25T14:01:33;6.68;;;4.28;;
22660;SDS011;11497;52.222;21.246;2023-04-25T14:04:02;4.80;;;4.28;;
22660;SDS011;11497;52.222;21.246;2023-04-25T14:06:31;5.70;;;4.38;;
22660;SDS011;11497;52.222;21.246;2023-04-25T14:08:59;4.55;;;3.75;;
22660;SDS011;11497;52.222;21.246;2023-04-25T14:11:28;6.85;;;4.30;;
22660;SDS011;11497;52.222;21.246;2023-04-25T14:13:56;7.60;;;4.30;;
22660;SDS011;11497;52.222;21.246;2023-04-25T14:16:24;5.10;;;3.55;;
22660;SDS011;11497;52.222;21.246;2023-04-25T14:18:51;4.45;;;2.35;;
22660;SDS011;11497;52.222;21.246;2023-04-25T14:21:21;5.60;;;2.85;;
22660;SDS011;11497;52.222;21.246;2023-04-25T14:23:49;5.35;;;2.70;;
22660;SDS011;11497;52.222;21.246;2023-04-25T14:26:17;3.42;;;2.88;;
22660;SDS011;11497;52.222;21.246;2023-04-25T14:28:45;6.53;;;3.15;;
22660;SDS011;11497;52.222;21.246;2023-04-25T14:31:13;3.80;;;2.80;;
22660;SDS011;11497;52.222;21.246;2023-04-25T14:33:41;5.57;;;4.00;;
22660;SDS011;11497;52.222;21.246;2023-04-25T14:36:10;7.03;;;3.67;;
22660;SDS011;11497;52.222;21.246;2023-04-25T14:38:37;5.53;;;3.50;;
22660;SDS011;11497;52.222;21.246;2023-04-25T14:41:05;5.53;;;3.60;;
22660;SDS011;11497;52.222;21.246;2023-04-25T14:43:33;3.53;;;3.20;;
22660;SDS011;11497;52.222;21.246;2023-04-25T14:46:02;5.25;;;3.80;;
22660;SDS011;11497;52.222;21.246;2023-04-25T14:48:30;5.63;;;4.50;;
22660;SDS011;11497;52.222;21.246;2023-04-25T14:50:58;7.20;;;5.32;;